Kalaheo, HI (96741)

5:10 PM HST on May 25, 2015 (GMT -1000)
Koloa Landing - Whaler's Cove | | Change Station
CLOSE
Current Station
Personal Weather Station
Location: Koloa, HI
Elevation: 25 ft
Nearby Weather Stations

Elev 25 ft 21.88 °N, 159.47 °W | Updated 2 seconds ago

Overcast
Overcast
75.4 °F
Feels Like 78 °F
N
4.0
Wind Variable Wind from NE
Gusts 4.9 mph

Today
High -- | Low -- °F
--% Chance of Precip.
Yesterday
High -- | Low -- °F
Precip. -- in
5:55 AM 7:14 PM
First Quarter, 54% visible
Pressure 29.96 in
Visibility 10.0 miles
Clouds Overcast 5500 ft
Heat Index 78 °F
Dew Point 61 °F
Humidity 61%
Rainfall 0.00 in
Snow Depth Not available.
UV 1 out of 12
Pollen Not available.
Air Quality Not available.
Flu Activity Local Activity
METAR PHLI 260253Z 35015G21KT 10SM OVC055 24/14 A2996 RMK AO2 SLP143 T02440144 55004

More Conditions Fewer Conditions

Pressure 29.96 in
Visibility 10.0 miles
Clouds Overcast 5500 ft
Heat Index 78 °F
Dew Point 61 °F
Humidity 61%
Rainfall 0.00 in
Snow Depth Not available.
UV 1 out of 12
Pollen Not available.
Air Quality Not available.
Flu Activity Local Activity
METAR PHLI 260253Z 35015G21KT 10SM OVC055 24/14 A2996 RMK AO2 SLP143 T02440144 55004

More Conditions Fewer Conditions

10-Day Weather Forecast

Almanac

Astronomy

May. 25, 2015 Rise Set
Actual Time
Civil Twilight
Nautical Twilight
Astronomical Twilight
Moon
Length of Visible Light
Length of Day
Tomorrow will be .
, % of the Moon is Illuminated

Today's Extremes

State Highs State Lows

Community

WunderPhotos

Upload Photos

1,824,249 photos uploaded!

WunderBlogs® & News

Nearby

Air Quality

  Air Quality AQ Index Pollutant
Not available.

Snow Depth

Station Depth Elevation

Earthquake Activity

City Distance Mag. Time & Date
Minimum magnitude displayed is 2.5.

Coastal Water Temperatures

Place Temperature

Stations

Nearby Weather Stations

Station Location Temp. Windchill Dew Point Humidity Wind Precip. Elev Updated Type